createdAt,value
2019-01-16T00:02:04.196Z,100522.55
2019-01-16T00:05:04.173Z,100520.88
2019-01-16T00:07:47.006Z,100518.54
2019-01-16T00:10:32.593Z,100512.22
2019-01-16T00:13:12.519Z,100513.05
2019-01-16T00:15:56.646Z,100511.55
2019-01-16T00:18:56.664Z,100507.06
2019-01-16T00:21:47.733Z,100501.55
2019-01-16T00:24:54.135Z,100496.22
2019-01-16T00:27:36.026Z,100497.55
2019-01-16T00:30:24.153Z,100495.07
2019-01-16T00:33:21.415Z,100492.56
2019-01-16T00:36:02.534Z,100495.07
2019-01-16T00:38:59.771Z,100495.58
2019-01-16T00:41:46.810Z,100485.42
2019-01-16T00:44:35.090Z,100485.58
2019-01-16T00:47:26.165Z,100485.58
2019-01-16T00:50:13.050Z,100484.23
2019-01-16T00:53:19.753Z,100488.41
2019-01-16T00:56:01.556Z,100483.25
2019-01-16T00:58:38.247Z,100479.60
2019-01-16T01:01:18.308Z,100480.42
2019-01-16T01:04:21.755Z,100483.91
2019-01-16T01:07:08.501Z,100484.24
2019-01-16T01:09:46.726Z,100483.77
2019-01-16T01:12:37.650Z,100482.58
2019-01-16T01:15:27.127Z,100485.92
2019-01-16T01:18:23.233Z,100485.75
2019-01-16T01:21:17.250Z,100477.61
2019-01-16T01:24:05.971Z,100485.41
2019-01-16T01:27:12.431Z,100486.41
2019-01-16T01:29:52.227Z,100478.09
2019-01-16T01:32:32.619Z,100479.61
2019-01-16T01:35:33.757Z,100482.41
2019-01-16T01:38:40.204Z,100483.42
2019-01-16T01:41:27.674Z,100478.09
2019-01-16T01:44:04.291Z,100476.42
2019-01-16T01:47:02.097Z,100475.11
2019-01-16T01:50:05.716Z,100478.92
2019-01-16T01:52:53.721Z,100478.92
2019-01-16T01:55:40.127Z,100479.09
2019-01-16T01:58:26.799Z,100480.42
2019-01-16T02:01:14.316Z,100471.95
2019-01-16T02:04:20.895Z,100474.25
2019-01-16T02:07:14.935Z,100470.78
2019-01-16T02:10:09.467Z,100466.95
2019-01-16T02:12:52.039Z,100465.95
2019-01-16T02:15:55.547Z,100469.95
2019-01-16T02:18:47.344Z,100466.77
2019-01-16T02:21:31.743Z,100461.29
2019-01-16T02:24:18.336Z,100449.98
2019-01-16T02:27:05.306Z,100457.45
2019-01-16T02:30:02.683Z,100445.81
2019-01-16T02:33:06.092Z,100438.64
2019-01-16T02:36:03.329Z,100436.83
2019-01-16T02:39:09.703Z,100432.67
2019-01-16T02:41:56.116Z,100428.69
2019-01-16T02:44:43.076Z,100432.00
2019-01-16T02:47:37.198Z,100430.34
2019-01-16T02:50:38.159Z,100418.20
2019-01-16T02:53:29.748Z,100418.86
2019-01-16T02:56:14.781Z,100416.71
2019-01-16T02:58:50.555Z,100416.20
2019-01-16T03:01:28.137Z,100413.37
2019-01-16T03:04:14.847Z,100408.05
2019-01-16T03:07:00.611Z,100401.70
2019-01-16T03:10:06.818Z,100390.38
2019-01-16T03:13:14.093Z,100386.06
2019-01-16T03:16:00.908Z,100384.22
2019-01-16T03:19:04.267Z,100385.72
2019-01-16T03:21:55.450Z,100382.44
2019-01-16T03:24:36.088Z,100382.55
2019-01-16T03:27:13.930Z,100380.06
2019-01-16T03:30:11.029Z,100374.75
2019-01-16T03:32:53.351Z,100371.61
2019-01-16T03:35:40.728Z,100371.44
2019-01-16T03:38:34.690Z,100369.42
2019-01-16T03:41:26.034Z,100359.44
2019-01-16T03:44:14.346Z,100365.94
2019-01-16T03:46:58.791Z,100361.30
2019-01-16T03:49:46.886Z,100352.80
2019-01-16T03:52:40.988Z,100350.45
2019-01-16T03:55:31.550Z,100346.79
2019-01-16T03:58:34.879Z,100350.80
2019-01-16T04:01:13.758Z,100352.30
2019-01-16T04:03:58.078Z,100348.97
2019-01-16T04:07:01.186Z,100331.19
2019-01-16T04:10:01.410Z,100333.66
2019-01-16T04:12:48.240Z,100330.67
2019-01-16T04:15:39.368Z,100332.00
2019-01-16T04:18:23.704Z,100325.68
2019-01-16T04:21:09.877Z,100323.70
2019-01-16T04:24:07.042Z,100318.55
2019-01-16T04:26:55.389Z,100317.88
2019-01-16T04:29:40.761Z,100310.91
2019-01-16T04:32:27.653Z,100306.07
2019-01-16T04:35:15.635Z,100308.42
2019-01-16T04:38:10.307Z,100303.92
2019-01-16T04:40:55.590Z,100298.43
2019-01-16T04:43:34.572Z,100296.10
2019-01-16T04:46:34.923Z,100290.27
2019-01-16T04:49:35.888Z,100294.62
2019-01-16T04:52:24.004Z,100291.11
2019-01-16T04:55:03.252Z,100281.80
2019-01-16T04:57:57.229Z,100296.42
2019-01-16T05:00:43.911Z,100296.92
2019-01-16T05:03:30.725Z,100290.30
2019-01-16T05:06:18.246Z,100276.14
2019-01-16T05:09:06.394Z,100278.66
2019-01-16T05:11:49.979Z,100281.13
2019-01-16T05:14:40.605Z,100281.14
2019-01-16T05:17:24.493Z,100286.46
2019-01-16T05:20:12.567Z,100290.61
2019-01-16T05:22:59.610Z,100287.63
2019-01-16T05:25:50.805Z,100280.83
2019-01-16T05:28:54.156Z,100273.16
2019-01-16T05:31:41.066Z,100273.68
2019-01-16T05:34:35.074Z,100268.36
2019-01-16T05:37:15.921Z,100266.20
2019-01-16T05:40:00.747Z,100270.01
2019-01-16T05:42:47.659Z,100269.16
2019-01-16T05:45:34.801Z,100262.35
2019-01-16T05:48:18.172Z,100261.37
2019-01-16T05:51:09.389Z,100266.34
2019-01-16T05:54:02.468Z,100258.22
2019-01-16T05:57:08.810Z,100253.73
2019-01-16T06:00:09.122Z,100246.90
2019-01-16T06:03:15.901Z,100243.09
2019-01-16T06:06:06.672Z,100230.30
2019-01-16T06:08:54.842Z,100226.80
2019-01-16T06:11:41.960Z,100227.95
2019-01-16T06:14:19.615Z,100224.96
2019-01-16T06:17:06.469Z,100223.16
2019-01-16T06:20:00.495Z,100222.33
2019-01-16T06:22:56.974Z,100221.48
2019-01-16T06:25:35.679Z,100218.18
2019-01-16T06:28:42.042Z,100218.16
2019-01-16T06:31:42.139Z,100206.20
2019-01-16T06:34:39.540Z,100211.18
2019-01-16T06:37:40.159Z,100209.86
2019-01-16T06:40:32.494Z,100203.56
2019-01-16T06:43:19.044Z,100201.21
2019-01-16T06:45:57.749Z,100201.38
2019-01-16T06:48:44.691Z,100207.55
2019-01-16T06:51:45.046Z,100194.58
2019-01-16T06:54:33.193Z,100195.23
2019-01-16T06:57:36.482Z,100190.59
2019-01-16T07:00:26.562Z,100193.08
2019-01-16T07:03:13.769Z,100189.27
2019-01-16T07:06:10.999Z,100182.45
2019-01-16T07:08:57.716Z,100187.61
2019-01-16T07:11:51.756Z,100177.95
2019-01-16T07:14:38.743Z,100173.63
2019-01-16T07:17:17.328Z,100169.48
2019-01-16T07:20:11.439Z,100176.65
2019-01-16T07:23:02.207Z,100170.34
2019-01-16T07:25:56.643Z,100170.30
2019-01-16T07:28:51.013Z,100173.48
2019-01-16T07:31:38.161Z,100178.61
2019-01-16T07:34:27.723Z,100178.12
2019-01-16T07:37:14.589Z,100172.13
2019-01-16T07:40:02.903Z,100174.80
2019-01-16T07:43:03.331Z,100174.28
2019-01-16T07:45:50.092Z,100177.61
2019-01-16T07:48:44.342Z,100170.78
2019-01-16T07:51:47.474Z,100174.60
2019-01-16T07:54:42.110Z,100171.95
2019-01-16T07:57:22.578Z,100171.11
2019-01-16T08:00:03.324Z,100175.58
2019-01-16T08:03:01.586Z,100174.57
2019-01-16T08:05:48.438Z,100174.93
2019-01-16T08:08:36.590Z,100175.09
2019-01-16T08:11:34.420Z,100174.28
2019-01-16T08:14:27.603Z,100172.83
2019-01-16T08:17:24.711Z,100178.14
2019-01-16T08:20:13.449Z,100187.23
2019-01-16T08:23:19.510Z,100174.91
2019-01-16T08:26:07.593Z,100178.40
2019-01-16T08:29:02.038Z,100178.04
2019-01-16T08:31:50.188Z,100173.53
2019-01-16T08:34:36.738Z,100172.03
2019-01-16T08:37:32.091Z,100171.67
2019-01-16T08:40:14.981Z,100163.01
2019-01-16T08:43:18.428Z,100160.16
2019-01-16T08:46:18.725Z,100165.98
2019-01-16T08:49:11.630Z,100160.46
2019-01-16T08:52:11.987Z,100151.27
2019-01-16T08:54:57.123Z,100156.13
2019-01-16T08:57:54.094Z,100153.31
2019-01-16T09:00:44.875Z,100146.11
2019-01-16T09:03:48.176Z,100150.74
2019-01-16T09:06:30.078Z,100149.27
2019-01-16T09:09:13.888Z,100149.84
2019-01-16T09:12:02.243Z,100150.20
2019-01-16T09:14:50.318Z,100152.30
2019-01-16T09:17:37.532Z,100147.20
2019-01-16T09:20:44.295Z,100143.91
2019-01-16T09:23:31.618Z,100143.86
2019-01-16T09:26:25.711Z,100139.94
2019-01-16T09:29:22.937Z,100137.47
2019-01-16T09:32:03.126Z,100130.94
2019-01-16T09:34:47.059Z,100136.22
2019-01-16T09:37:47.324Z,100130.58
2019-01-16T09:40:32.315Z,100128.41
2019-01-16T09:43:19.434Z,100125.83
2019-01-16T09:46:06.498Z,100124.86
2019-01-16T09:49:03.844Z,100128.80
2019-01-16T09:51:52.489Z,100124.63
2019-01-16T09:54:43.359Z,100125.20
2019-01-16T09:57:30.222Z,100116.77
2019-01-16T10:00:16.889Z,100113.17
2019-01-16T10:03:03.560Z,100109.53
2019-01-16T10:05:53.930Z,100106.77
2019-01-16T10:08:37.691Z,100109.38
2019-01-16T10:11:34.231Z,100098.23
2019-01-16T10:14:21.061Z,100099.62
2019-01-16T10:17:09.222Z,100085.54
2019-01-16T10:20:06.201Z,100086.77
2019-01-16T10:23:06.649Z,100074.17
2019-01-16T10:25:44.616Z,100069.55
2019-01-16T10:28:45.920Z,100062.97
2019-01-16T10:31:49.091Z,100053.33
2019-01-16T10:34:52.317Z,100055.22
2019-01-16T10:37:40.537Z,100051.16
2019-01-16T10:40:22.555Z,100044.08
2019-01-16T10:43:13.377Z,100033.83
2019-01-16T10:45:53.303Z,100026.09
2019-01-16T10:48:50.603Z,100022.09
2019-01-16T10:51:54.077Z,100024.00
2019-01-16T10:54:40.970Z,100015.27
2019-01-16T10:57:41.504Z,100009.00
2019-01-16T11:00:41.649Z,100011.42
2019-01-16T11:03:21.767Z,100001.30
2019-01-16T11:06:08.439Z,99996.53
2019-01-16T11:08:55.007Z,99992.80
2019-01-16T11:11:38.159Z,99997.39
2019-01-16T11:14:25.195Z,99996.28
2019-01-16T11:17:12.303Z,99993.33
2019-01-16T11:20:01.184Z,99983.99
2019-01-16T11:23:02.631Z,99982.88
2019-01-16T11:25:59.692Z,99974.22
2019-01-16T11:28:50.762Z,99973.90
2019-01-16T11:31:45.348Z,99956.89
2019-01-16T11:34:33.587Z,99955.09
2019-01-16T11:37:34.566Z,99952.81
2019-01-16T11:40:39.679Z,99946.19
2019-01-16T11:43:17.879Z,99939.33
2019-01-16T11:46:04.919Z,99930.25
2019-01-16T11:49:01.866Z,99921.86
2019-01-16T11:51:49.054Z,99921.47
2019-01-16T11:54:37.183Z,99916.84
2019-01-16T11:57:24.009Z,99918.73
2019-01-16T12:00:12.377Z,99916.21
2019-01-16T12:02:51.117Z,99905.65
2019-01-16T12:05:42.716Z,99899.05
2019-01-16T12:08:31.452Z,99892.38
2019-01-16T12:11:15.710Z,99886.01
2019-01-16T12:14:03.883Z,99884.10
2019-01-16T12:17:10.176Z,99885.89
2019-01-16T12:20:01.184Z,99870.82
2019-01-16T12:23:01.637Z,99869.25
2019-01-16T12:25:41.522Z,99853.98
2019-01-16T12:28:35.514Z,99854.52
2019-01-16T12:31:13.498Z,99852.80
2019-01-16T12:34:07.586Z,99845.59
2019-01-16T12:36:48.670Z,99842.11
2019-01-16T12:39:49.029Z,99830.09
2019-01-16T12:42:37.241Z,99820.13
2019-01-16T12:45:43.977Z,99824.11
2019-01-16T12:48:37.619Z,99817.37
2019-01-16T12:51:25.956Z,99814.66
2019-01-16T12:54:13.944Z,99809.13
2019-01-16T12:57:08.213Z,99807.06
2019-01-16T12:59:50.098Z,99799.69
2019-01-16T13:02:34.422Z,99789.70
2019-01-16T13:05:21.682Z,99790.53
2019-01-16T13:08:13.010Z,99782.41
2019-01-16T13:11:05.354Z,99790.03
2019-01-16T13:14:08.787Z,99781.49
2019-01-16T13:17:03.472Z,99776.05
2019-01-16T13:19:51.675Z,99766.39
2019-01-16T13:22:46.015Z,99762.94
2019-01-16T13:25:31.126Z,99761.32
2019-01-16T13:28:14.512Z,99757.61
2019-01-16T13:31:08.594Z,99758.38
2019-01-16T13:33:50.936Z,99746.80
2019-01-16T13:36:48.377Z,99742.41
2019-01-16T13:39:42.973Z,99739.38
2019-01-16T13:42:40.075Z,99745.05
2019-01-16T13:45:34.626Z,99734.87
2019-01-16T13:48:22.806Z,99725.80
2019-01-16T13:51:19.910Z,99730.48
2019-01-16T13:54:27.092Z,99721.88
2019-01-16T13:57:15.254Z,99717.22
2019-01-16T14:00:06.244Z,99708.91
2019-01-16T14:02:44.731Z,99703.67
2019-01-16T14:05:22.311Z,99702.25
2019-01-16T14:08:09.026Z,99697.69
2019-01-16T14:11:05.935Z,99701.28
2019-01-16T14:13:53.953Z,99697.08
2019-01-16T14:16:41.067Z,99695.75
2019-01-16T14:19:29.527Z,99696.36
2019-01-16T14:22:26.661Z,99693.40
2019-01-16T14:25:17.699Z,99690.03
2019-01-16T14:28:17.842Z,99677.19
2019-01-16T14:31:23.947Z,99675.65
2019-01-16T14:34:07.422Z,99671.54
2019-01-16T14:36:58.400Z,99661.69
2019-01-16T14:39:48.211Z,99659.91
2019-01-16T14:42:30.241Z,99667.42
2019-01-16T14:45:17.731Z,99662.59
2019-01-16T14:47:58.449Z,99657.84
2019-01-16T14:50:32.813Z,99660.30
2019-01-16T14:53:27.112Z,99651.84
2019-01-16T14:56:13.988Z,99658.21
2019-01-16T14:58:57.778Z,99648.23
2019-01-16T15:01:57.031Z,99642.78
2019-01-16T15:04:44.371Z,99638.87
2019-01-16T15:07:35.464Z,99634.53
2019-01-16T15:10:19.675Z,99633.92
2019-01-16T15:13:06.718Z,99628.34
2019-01-16T15:16:00.978Z,99618.36
2019-01-16T15:18:47.933Z,99618.00
2019-01-16T15:21:31.116Z,99618.28
2019-01-16T15:24:32.134Z,99615.89
2019-01-16T15:27:11.893Z,99608.67
2019-01-16T15:30:05.497Z,99606.89
2019-01-16T15:32:52.579Z,99605.34
2019-01-16T15:35:43.366Z,99603.45
2019-01-16T15:38:31.390Z,99604.48
2019-01-16T15:41:25.743Z,99601.55
2019-01-16T15:44:20.451Z,99601.83
2019-01-16T15:47:21.474Z,99600.44
2019-01-16T15:50:08.301Z,99600.59
2019-01-16T15:52:55.004Z,99597.44
2019-01-16T15:55:34.754Z,99602.20
2019-01-16T15:58:13.716Z,99594.64
2019-01-16T16:00:58.726Z,99592.31
2019-01-16T16:03:51.226Z,99583.82
2019-01-16T16:06:39.266Z,99585.16
2019-01-16T16:09:30.813Z,99586.30
2019-01-16T16:12:17.560Z,99581.91
2019-01-16T16:14:56.671Z,99577.03
2019-01-16T16:17:54.676Z,99571.38
2019-01-16T16:20:41.802Z,99574.30
2019-01-16T16:23:38.589Z,99569.95
2019-01-16T16:26:26.630Z,99563.24
2019-01-16T16:29:26.785Z,99560.48
2019-01-16T16:32:27.309Z,99565.07
2019-01-16T16:35:14.349Z,99561.88
2019-01-16T16:38:21.591Z,99562.34
2019-01-16T16:41:02.097Z,99551.33
2019-01-16T16:43:58.969Z,99549.95
2019-01-16T16:46:59.232Z,99545.68
2019-01-16T16:49:46.284Z,99538.63
2019-01-16T16:52:29.425Z,99537.53
2019-01-16T16:55:26.573Z,99529.97
2019-01-16T16:58:13.811Z,99523.75
2019-01-16T17:01:20.838Z,99510.35
2019-01-16T17:04:07.743Z,99508.55
2019-01-16T17:06:50.516Z,99504.80
2019-01-16T17:09:32.711Z,99494.28
2019-01-16T17:12:36.613Z,99490.91
2019-01-16T17:15:21.834Z,99488.55
2019-01-16T17:17:59.868Z,99494.27
2019-01-16T17:20:53.862Z,99487.38
2019-01-16T17:23:42.210Z,99484.27
2019-01-16T17:26:42.641Z,99489.80
2019-01-16T17:29:45.992Z,99486.37
2019-01-16T17:32:32.149Z,99490.57
2019-01-16T17:35:23.519Z,99489.28
2019-01-16T17:38:23.774Z,99486.15
2019-01-16T17:41:30.554Z,99488.22
2019-01-16T17:44:33.914Z,99489.63
2019-01-16T17:47:30.613Z,99488.91
2019-01-16T17:50:18.800Z,99490.93
2019-01-16T17:53:09.655Z,99485.52
2019-01-16T17:55:57.153Z,99485.52
2019-01-16T17:59:00.597Z,99486.91
2019-01-16T18:01:48.755Z,99486.91
2019-01-16T18:04:35.611Z,99481.95
2019-01-16T18:07:22.870Z,99480.02
2019-01-16T18:10:10.147Z,99475.59
2019-01-16T18:12:58.317Z,99481.38
2019-01-16T18:15:49.370Z,99477.13
2019-01-16T18:18:40.683Z,99476.98
2019-01-16T18:21:27.694Z,99459.81
2019-01-16T18:24:15.737Z,99459.81
2019-01-16T18:27:19.321Z,99457.35
2019-01-16T18:30:05.921Z,99457.35
2019-01-16T18:32:53.114Z,99446.97
2019-01-16T18:35:43.725Z,99438.05
2019-01-16T18:38:41.067Z,99436.70
2019-01-16T18:41:29.084Z,99438.39
2019-01-16T18:44:17.311Z,99438.39
2019-01-16T18:46:58.861Z,99440.89
2019-01-16T18:49:45.796Z,99447.50
2019-01-16T18:52:34.556Z,99446.86
2019-01-16T18:55:19.204Z,99446.91
2019-01-16T18:58:01.549Z,99446.91
2019-01-16T19:00:51.511Z,99437.64
2019-01-16T19:03:45.659Z,99436.32
2019-01-16T19:06:40.210Z,99437.17
2019-01-16T19:09:38.278Z,99437.17
2019-01-16T19:12:32.436Z,99440.81
2019-01-16T19:15:08.377Z,99433.72
2019-01-16T19:17:49.191Z,99428.77
2019-01-16T19:20:39.583Z,99435.70
2019-01-16T19:23:37.027Z,99439.17
2019-01-16T19:26:43.158Z,99439.17
2019-01-16T19:29:23.314Z,99432.90
2019-01-16T19:32:14.888Z,99427.13
2019-01-16T19:35:01.629Z,99427.13
2019-01-16T19:37:58.782Z,99427.13
2019-01-16T19:40:46.484Z,99422.82
2019-01-16T19:43:39.232Z,99414.23
2019-01-16T19:46:30.605Z,99414.23
2019-01-16T19:49:35.783Z,99421.19
2019-01-16T19:55:27.494Z,99420.03
2019-01-16T19:58:19.612Z,99406.64
2019-01-16T20:01:09.617Z,99405.32
2019-01-16T20:03:51.107Z,99408.62
2019-01-16T20:06:32.417Z,99386.45
2019-01-16T20:09:19.176Z,99409.44
2019-01-16T20:12:02.574Z,99420.16
2019-01-16T20:14:49.832Z,99420.16
2019-01-16T20:17:42.878Z,99420.67
2019-01-16T20:20:34.085Z,99424.64
2019-01-16T20:23:20.845Z,99425.44
2019-01-16T20:26:09.153Z,99423.80
2019-01-16T20:29:05.585Z,99428.25
2019-01-16T20:32:05.902Z,99423.29
2019-01-16T20:34:55.923Z,99418.48
2019-01-16T20:37:47.087Z,99420.48
2019-01-16T20:40:37.970Z,99424.61
2019-01-16T20:43:24.726Z,99424.61
2019-01-16T20:46:22.987Z,99420.30
2019-01-16T20:49:17.596Z,99425.06
2019-01-16T20:52:05.647Z,99427.18
2019-01-16T20:54:59.622Z,99420.25
2019-01-16T20:58:00.105Z,99422.73
2019-01-16T21:01:07.126Z,99416.45
2019-01-16T21:04:07.351Z,99416.29
2019-01-16T21:07:04.810Z,99416.29
2019-01-16T21:09:55.052Z,99414.94
2019-01-16T21:12:38.810Z,99420.38
2019-01-16T21:15:29.161Z,99417.89
2019-01-16T21:18:16.018Z,99413.60
2019-01-16T21:21:03.163Z,99413.23
2019-01-16T21:23:51.372Z,99412.13
2019-01-16T21:26:42.522Z,99405.20
2019-01-16T21:29:29.539Z,99401.56
2019-01-16T21:32:20.896Z,99401.56
2019-01-16T21:35:10.405Z,99399.72
2019-01-16T21:38:03.918Z,99399.72
2019-01-16T21:41:04.212Z,99403.16
2019-01-16T21:43:50.917Z,99406.32
2019-01-16T21:46:38.048Z,99405.64
2019-01-16T21:49:31.230Z,99401.41
2019-01-16T21:52:18.048Z,99390.81
2019-01-16T21:54:55.610Z,99394.96
2019-01-16T21:57:46.742Z,99404.52
2019-01-16T22:00:36.497Z,99398.09
2019-01-16T22:03:14.373Z,99406.31
2019-01-16T22:06:02.449Z,99410.44
2019-01-16T22:09:15.003Z,99408.95
2019-01-16T22:11:57.010Z,99408.95
2019-01-16T22:14:54.066Z,99412.08
2019-01-16T22:17:50.971Z,99414.92
2019-01-16T22:20:31.283Z,99409.45
2019-01-16T22:23:18.180Z,99407.17
2019-01-16T22:25:59.502Z,99415.81
2019-01-16T22:28:44.358Z,99415.81
2019-01-16T22:31:32.864Z,99415.33
2019-01-16T22:34:16.562Z,99423.06
2019-01-16T22:37:08.901Z,99423.42
2019-01-16T22:40:08.587Z,99420.78
2019-01-16T22:42:55.697Z,99412.05
2019-01-16T22:45:40.915Z,99419.48
2019-01-16T22:48:35.025Z,99409.59
2019-01-16T22:51:35.590Z,99420.97
2019-01-16T22:54:30.081Z,99408.59
2019-01-16T22:57:24.321Z,99398.70
2019-01-16T23:00:11.055Z,99397.87
2019-01-16T23:02:48.161Z,99397.87
2019-01-16T23:05:39.301Z,99396.73
2019-01-16T23:08:24.623Z,99388.45
2019-01-16T23:11:15.679Z,99391.08
2019-01-16T23:14:12.800Z,99384.15
2019-01-16T23:17:19.933Z,99381.20
2019-01-16T23:20:07.956Z,99376.91
2019-01-16T23:22:52.485Z,99368.16
2019-01-16T23:25:33.873Z,99372.78
2019-01-16T23:28:21.155Z,99375.27
2019-01-16T23:31:15.268Z,99371.27
2019-01-16T23:34:04.474Z,99377.05
2019-01-16T23:36:51.366Z,99377.05
2019-01-16T23:39:48.247Z,99368.45
2019-01-16T23:42:47.072Z,99370.58
2019-01-16T23:45:33.910Z,99366.59
2019-01-16T23:48:34.259Z,99366.59
2019-01-16T23:51:21.149Z,99363.27
2019-01-16T23:54:01.634Z,99363.27
2019-01-16T23:56:53.320Z,99366.56
2019-01-16T23:59:40.145Z,99362.06
